createdAt,value
2023-04-19T00:02:14.146Z,20.04
2023-04-19T00:04:40.804Z,20.01
2023-04-19T00:07:07.606Z,20.03
2023-04-19T00:09:34.193Z,20.06
2023-04-19T00:12:01.141Z,19.96
2023-04-19T00:14:27.735Z,20.06
2023-04-19T00:16:54.360Z,19.93
2023-04-19T00:19:22.326Z,19.98
2023-04-19T00:21:49.196Z,19.91
2023-04-19T00:24:16.105Z,20.05
2023-04-19T00:26:42.723Z,19.87
2023-04-19T00:29:09.596Z,19.88
2023-04-19T00:31:36.087Z,19.74
2023-04-19T00:34:03.919Z,20.05
2023-04-19T00:36:30.689Z,20.05
2023-04-19T00:38:57.289Z,20.01
2023-04-19T00:41:23.795Z,19.96
2023-04-19T00:43:50.366Z,19.76
2023-04-19T00:46:17.029Z,19.92
2023-04-19T00:48:45.316Z,19.99
2023-04-19T00:51:12.747Z,19.90
2023-04-19T00:53:40.554Z,20.07
2023-04-19T00:56:07.242Z,19.98
2023-04-19T00:58:33.795Z,19.89
2023-04-19T01:01:00.432Z,19.75
2023-04-19T01:03:30.273Z,19.78
2023-04-19T01:05:57.469Z,19.87
2023-04-19T01:08:24.287Z,19.96
2023-04-19T01:10:53.659Z,19.86
2023-04-19T01:13:20.166Z,20.00
2023-04-19T01:15:48.301Z,20.07
2023-04-19T01:18:14.996Z,20.05
2023-04-19T01:20:42.618Z,19.87
2023-04-19T01:23:11.597Z,19.64
2023-04-19T01:25:38.912Z,19.64
2023-04-19T01:28:06.205Z,19.58
2023-04-19T01:30:33.022Z,19.66
2023-04-19T01:33:00.314Z,19.68
2023-04-19T01:35:28.420Z,19.67
2023-04-19T01:37:56.258Z,19.56
2023-04-19T01:40:26.718Z,19.69
2023-04-19T01:42:53.436Z,19.59
2023-04-19T01:45:20.078Z,19.49
2023-04-19T01:47:50.242Z,19.50
2023-04-19T01:50:16.866Z,19.51
2023-04-19T01:52:43.513Z,19.35
2023-04-19T01:55:10.326Z,19.44
2023-04-19T01:57:36.827Z,19.37
2023-04-19T02:00:04.103Z,19.34
2023-04-19T02:02:41.184Z,19.35
2023-04-19T02:05:08.523Z,19.22
2023-04-19T02:07:35.252Z,19.17
2023-04-19T02:10:01.824Z,19.19
2023-04-19T02:12:28.906Z,19.16
2023-04-19T02:14:59.544Z,19.02
2023-04-19T02:17:34.344Z,19.03
2023-04-19T02:20:00.914Z,18.54
2023-04-19T02:22:27.513Z,18.50
2023-04-19T02:24:54.095Z,18.54
2023-04-19T02:27:26.942Z,18.63
2023-04-19T02:29:54.304Z,18.67
2023-04-19T02:32:20.969Z,18.59
2023-04-19T02:34:47.472Z,18.58
2023-04-19T02:37:14.105Z,18.54
2023-04-19T02:39:42.602Z,18.42
2023-04-19T02:42:09.105Z,18.33
2023-04-19T02:44:35.593Z,18.57
2023-04-19T02:47:02.129Z,18.59
2023-04-19T02:49:33.110Z,18.68
2023-04-19T02:51:59.986Z,18.55
2023-04-19T02:54:26.696Z,18.41
2023-04-19T02:56:53.238Z,18.31
2023-04-19T02:59:19.735Z,18.32
2023-04-19T03:01:46.525Z,18.29
2023-04-19T03:04:13.461Z,18.25
2023-04-19T03:06:42.114Z,18.28
2023-04-19T03:09:08.649Z,18.25
2023-04-19T03:11:36.941Z,18.15
2023-04-19T03:14:03.525Z,18.19
2023-04-19T03:16:30.266Z,18.19
2023-04-19T03:18:57.093Z,18.30
2023-04-19T03:21:29.089Z,18.22
2023-04-19T03:23:56.140Z,18.17
2023-04-19T03:26:24.479Z,18.14
2023-04-19T03:28:53.402Z,18.11
2023-04-19T03:31:35.079Z,18.14
2023-04-19T03:34:02.655Z,18.11
2023-04-19T03:36:35.566Z,18.16
2023-04-19T03:39:03.654Z,18.11
2023-04-19T03:41:30.214Z,18.13
2023-04-19T03:44:05.320Z,18.11
2023-04-19T03:46:31.939Z,18.03
2023-04-19T03:48:59.382Z,18.04
2023-04-19T03:51:27.328Z,18.03
2023-04-19T03:53:53.872Z,17.98
2023-04-19T03:56:20.717Z,17.93
2023-04-19T03:58:49.267Z,17.94
2023-04-19T04:01:19.862Z,18.03
2023-04-19T04:03:46.578Z,17.99
2023-04-19T04:06:13.378Z,17.97
2023-04-19T04:08:40.083Z,17.92
2023-04-19T04:11:06.575Z,17.90
2023-04-19T04:13:33.135Z,17.96
2023-04-19T04:16:08.401Z,17.93
2023-04-19T04:18:35.201Z,17.94
2023-04-19T04:21:04.591Z,17.98
2023-04-19T04:23:33.850Z,17.99
2023-04-19T04:26:01.796Z,17.91
2023-04-19T04:28:43.024Z,17.99
2023-04-19T04:31:10.230Z,17.97
2023-04-19T04:33:37.180Z,17.86
2023-04-19T04:36:06.141Z,17.87
2023-04-19T04:38:35.821Z,17.98
2023-04-19T04:41:06.048Z,17.98
2023-04-19T04:43:33.583Z,17.93
2023-04-19T04:46:01.026Z,17.99
2023-04-19T04:48:32.806Z,18.03
2023-04-19T04:50:59.356Z,18.15
2023-04-19T04:53:27.218Z,18.17
2023-04-19T04:55:56.526Z,18.31
2023-04-19T04:58:23.196Z,18.26
2023-04-19T05:01:19.637Z,18.43
2023-04-19T05:03:47.566Z,18.41
2023-04-19T05:06:18.238Z,18.54
2023-04-19T05:08:45.647Z,18.55
2023-04-19T05:11:18.681Z,18.51
2023-04-19T05:13:46.079Z,18.50
2023-04-19T05:16:13.519Z,18.52
2023-04-19T05:18:43.261Z,18.54
2023-04-19T05:21:10.470Z,18.54
2023-04-19T05:23:38.603Z,18.60
2023-04-19T05:26:05.800Z,18.72
2023-04-19T05:28:32.623Z,18.73
2023-04-19T05:31:09.170Z,18.94
2023-04-19T05:33:44.077Z,19.02
2023-04-19T05:36:10.685Z,19.05
2023-04-19T05:38:37.238Z,19.20
2023-04-19T05:41:04.809Z,19.04
2023-04-19T05:43:31.346Z,19.17
2023-04-19T05:45:58.351Z,19.23
2023-04-19T05:48:25.601Z,19.22
2023-04-19T05:51:10.226Z,19.40
2023-04-19T05:54:00.672Z,19.26
2023-04-19T05:56:27.205Z,19.27
2023-04-19T05:58:56.202Z,19.48
2023-04-19T06:01:23.361Z,19.72
2023-04-19T06:03:53.551Z,19.84
2023-04-19T06:06:24.464Z,20.86
2023-04-19T06:08:53.278Z,21.76
2023-04-19T06:11:26.869Z,22.61
2023-04-19T06:13:58.230Z,24.65
2023-04-19T06:16:25.541Z,26.60
2023-04-19T06:18:52.217Z,27.60
2023-04-19T06:21:18.728Z,27.86
2023-04-19T06:23:45.311Z,27.72
2023-04-19T06:26:11.831Z,28.79
2023-04-19T06:28:38.444Z,29.38
2023-04-19T06:31:05.020Z,30.41
2023-04-19T06:33:31.550Z,32.00
2023-04-19T06:35:58.053Z,33.85
2023-04-19T06:38:24.873Z,34.34
2023-04-19T06:40:51.531Z,33.43
2023-04-19T06:43:18.032Z,34.39
2023-04-19T06:45:44.658Z,35.19
2023-04-19T06:48:11.208Z,36.35
2023-04-19T06:50:37.953Z,36.12
2023-04-19T06:53:04.965Z,36.05
2023-04-19T06:55:31.776Z,36.72
2023-04-19T06:57:58.522Z,37.73
2023-04-19T07:00:25.078Z,38.36
2023-04-19T07:02:52.413Z,38.92
2023-04-19T07:05:19.057Z,38.65
2023-04-19T07:07:45.571Z,37.99
2023-04-19T07:10:12.851Z,37.94
2023-04-19T07:12:39.359Z,38.28
2023-04-19T07:15:06.117Z,39.19
2023-04-19T07:17:35.069Z,39.27
2023-04-19T07:20:01.986Z,38.33
2023-04-19T07:22:28.491Z,38.92
2023-04-19T07:24:54.992Z,39.05
2023-04-19T07:27:21.513Z,38.24
2023-04-19T07:29:48.029Z,38.42
2023-04-19T07:32:15.258Z,37.49
2023-04-19T07:34:42.620Z,36.15
2023-04-19T07:37:09.541Z,34.87
2023-04-19T07:39:36.065Z,35.23
2023-04-19T07:42:02.595Z,35.63
2023-04-19T07:44:29.178Z,36.13
2023-04-19T07:46:55.850Z,36.80
2023-04-19T07:49:22.435Z,37.39
2023-04-19T07:51:49.391Z,37.19
2023-04-19T07:54:20.764Z,37.43
2023-04-19T07:56:47.287Z,37.90
2023-04-19T07:59:13.777Z,38.30
2023-04-19T08:01:40.510Z,38.24
2023-04-19T08:04:08.107Z,37.94
2023-04-19T08:06:37.732Z,38.24
2023-04-19T08:09:04.222Z,37.73
2023-04-19T08:11:31.136Z,38.26
2023-04-19T08:17:09.011Z,37.78
2023-04-19T08:19:14.625Z,38.28
2023-04-19T08:21:41.882Z,38.56
2023-04-19T08:24:08.658Z,36.88
2023-04-19T08:26:35.461Z,37.15
2023-04-19T08:29:01.985Z,36.27
2023-04-19T08:31:28.616Z,35.62
2023-04-19T08:33:55.249Z,35.11
2023-04-19T08:36:35.446Z,35.15
2023-04-19T08:39:12.327Z,35.22
2023-04-19T08:41:48.113Z,35.13
2023-04-19T08:44:25.326Z,34.83
2023-04-19T08:58:44.562Z,31.17
2023-04-19T09:01:26.733Z,30.26
2023-04-19T09:04:07.440Z,29.95
2023-04-19T09:06:47.584Z,29.52
2023-04-19T09:11:51.516Z,28.58
2023-04-19T09:14:19.712Z,28.15
2023-04-19T09:16:46.389Z,27.96
2023-04-19T09:19:23.190Z,27.44
2023-04-19T09:21:53.801Z,27.34
2023-04-19T09:25:02.635Z,27.91
2023-04-19T09:27:34.942Z,28.45
2023-04-19T09:30:02.624Z,28.77
2023-04-19T09:32:42.093Z,29.49
2023-04-19T09:35:08.770Z,29.99
2023-04-19T09:40:25.241Z,31.26
2023-04-19T09:45:30.033Z,30.53
2023-04-19T09:48:02.599Z,30.35
2023-04-19T09:50:31.244Z,29.91
2023-04-19T09:52:59.338Z,30.12
2023-04-19T09:55:28.808Z,30.04
2023-04-19T09:57:56.694Z,31.55
2023-04-19T10:00:23.630Z,30.76
2023-04-19T10:02:57.875Z,30.75
2023-04-19T10:05:25.720Z,30.80
2023-04-19T10:07:54.895Z,30.88
2023-04-19T10:10:33.260Z,31.05
2023-04-19T10:13:19.887Z,30.88
2023-04-19T10:15:53.660Z,31.12
2023-04-19T10:18:24.348Z,30.77
2023-04-19T10:21:01.017Z,30.72
2023-04-19T10:23:28.018Z,30.42
2023-04-19T10:25:58.497Z,30.45
2023-04-19T10:28:25.197Z,30.21
2023-04-19T10:31:02.020Z,30.51
2023-04-19T10:33:31.610Z,30.44
2023-04-19T10:35:59.150Z,30.30
2023-04-19T10:38:44.484Z,31.02
2023-04-19T10:41:18.196Z,30.67
2023-04-19T10:43:55.434Z,30.55
2023-04-19T10:46:22.001Z,30.36
2023-04-19T10:48:53.296Z,30.74
2023-04-19T10:51:22.611Z,31.02
2023-04-19T10:53:49.992Z,31.22
2023-04-19T10:56:21.178Z,31.59
2023-04-19T10:59:03.024Z,32.23
2023-04-19T11:01:39.541Z,32.23
2023-04-19T11:04:13.768Z,32.52
2023-04-19T11:06:52.746Z,33.07
2023-04-19T11:09:29.753Z,33.15
2023-04-19T11:12:03.030Z,33.17
2023-04-19T11:14:36.237Z,32.88
2023-04-19T11:17:05.285Z,32.32
2023-04-19T11:19:31.858Z,31.76
2023-04-19T11:21:59.834Z,31.19
2023-04-19T11:24:26.388Z,30.66
2023-04-19T11:26:55.351Z,30.36
2023-04-19T11:29:22.184Z,30.48
2023-04-19T11:31:48.786Z,30.55
2023-04-19T11:34:15.465Z,30.80
2023-04-19T11:36:52.411Z,30.82
2023-04-19T11:39:19.488Z,30.27
2023-04-19T11:41:47.450Z,29.75
2023-04-19T11:44:20.067Z,29.51
2023-04-19T11:47:03.329Z,29.57
2023-04-19T11:49:31.479Z,28.99
2023-04-19T11:52:05.370Z,28.88
2023-04-19T11:54:33.197Z,28.45
2023-04-19T11:57:04.766Z,28.16
2023-04-19T11:59:32.534Z,27.62
2023-04-19T12:02:10.572Z,27.53
2023-04-19T12:04:37.983Z,27.08
2023-04-19T12:07:05.997Z,26.81
2023-04-19T12:09:36.524Z,26.93
2023-04-19T12:12:03.573Z,26.78
2023-04-19T12:14:31.464Z,26.85
2023-04-19T12:17:10.905Z,27.12
2023-04-19T12:19:42.439Z,26.99
2023-04-19T12:22:10.768Z,27.27
2023-04-19T12:24:37.870Z,27.43
2023-04-19T12:27:04.409Z,27.35
2023-04-19T12:29:31.609Z,27.49
2023-04-19T12:31:58.177Z,27.54
2023-04-19T12:34:24.753Z,27.38
2023-04-19T12:36:51.274Z,27.42
2023-04-19T12:39:17.925Z,27.30
2023-04-19T12:41:44.583Z,27.21
2023-04-19T12:44:11.134Z,27.21
2023-04-19T12:46:37.728Z,27.30
2023-04-19T12:49:04.365Z,27.34
2023-04-19T12:51:31.794Z,27.04
2023-04-19T12:53:58.297Z,27.17
2023-04-19T12:56:24.811Z,27.24
2023-04-19T12:58:51.760Z,27.49
2023-04-19T13:01:18.309Z,27.41
2023-04-19T13:03:46.259Z,27.59
2023-04-19T13:06:15.410Z,27.49
2023-04-19T13:08:46.976Z,27.87
2023-04-19T13:11:15.803Z,28.44
2023-04-19T13:13:42.451Z,28.90
2023-04-19T13:16:09.252Z,29.08
2023-04-19T13:18:35.831Z,29.29
2023-04-19T13:21:02.455Z,29.51
2023-04-19T13:23:28.936Z,29.66
2023-04-19T13:25:55.448Z,29.78
2023-04-19T13:28:22.011Z,30.15
2023-04-19T13:30:48.767Z,30.50
2023-04-19T13:33:15.748Z,30.91
2023-04-19T13:35:45.011Z,31.30
2023-04-19T13:38:11.673Z,30.42
2023-04-19T13:40:39.605Z,30.09
2023-04-19T13:43:06.171Z,29.84
2023-04-19T13:45:32.680Z,29.38
2023-04-19T13:47:59.705Z,29.09
2023-04-19T13:50:26.315Z,29.02
2023-04-19T13:52:53.338Z,28.84
2023-04-19T13:55:20.297Z,28.41
2023-04-19T13:57:46.773Z,28.28
2023-04-19T14:00:13.777Z,27.88
2023-04-19T14:02:40.496Z,27.78
2023-04-19T14:05:07.458Z,27.53
2023-04-19T14:07:33.988Z,27.28
2023-04-19T14:10:00.555Z,27.09
2023-04-19T14:12:29.478Z,26.82
2023-04-19T14:14:56.051Z,26.69
2023-04-19T14:17:22.586Z,26.54
2023-04-19T14:19:49.155Z,26.24
2023-04-19T14:22:18.676Z,26.00
2023-04-19T14:24:46.287Z,25.76
2023-04-19T14:27:12.754Z,25.88
2023-04-19T14:29:39.816Z,25.99
2023-04-19T14:32:23.621Z,25.87
2023-04-19T14:34:52.480Z,25.70
2023-04-19T14:37:19.253Z,25.56
2023-04-19T14:39:46.256Z,25.66
2023-04-19T14:42:12.824Z,25.67
2023-04-19T14:44:40.341Z,25.69
2023-04-19T14:47:06.823Z,25.57
2023-04-19T14:49:33.532Z,25.44
2023-04-19T14:52:00.031Z,25.37
2023-04-19T14:54:26.552Z,25.30
2023-04-19T14:56:53.727Z,25.33
2023-04-19T14:59:22.943Z,25.32
2023-04-19T15:01:49.535Z,25.08
2023-04-19T15:04:19.525Z,24.89
2023-04-19T15:06:49.067Z,24.83
2023-04-19T15:09:18.876Z,24.63
2023-04-19T15:11:47.770Z,24.36
2023-04-19T15:14:14.335Z,24.10
2023-04-19T15:16:40.930Z,24.10
2023-04-19T15:19:07.964Z,23.98
2023-04-19T15:21:34.647Z,23.86
2023-04-19T15:24:01.560Z,23.60
2023-04-19T15:26:28.255Z,23.21
2023-04-19T15:28:55.777Z,23.10
2023-04-19T15:31:22.563Z,23.00
2023-04-19T15:33:49.308Z,22.70
2023-04-19T15:36:16.281Z,22.50
2023-04-19T15:38:44.038Z,22.33
2023-04-19T15:41:11.065Z,21.94
2023-04-19T15:43:37.534Z,21.50
2023-04-19T15:46:04.188Z,20.83
2023-04-19T15:48:30.770Z,20.90
2023-04-19T15:50:57.305Z,20.82
2023-04-19T15:53:23.959Z,20.78
2023-04-19T15:55:50.491Z,20.47
2023-04-19T15:58:17.059Z,20.16
2023-04-19T16:00:43.569Z,20.15
2023-04-19T16:03:12.412Z,19.99
2023-04-19T16:05:39.169Z,19.60
2023-04-19T16:08:09.987Z,19.38
2023-04-19T16:10:36.897Z,19.11
2023-04-19T16:13:04.858Z,19.15
2023-04-19T16:15:31.896Z,19.22
2023-04-19T16:17:58.634Z,19.17
2023-04-19T16:20:25.175Z,19.23
2023-04-19T16:22:51.653Z,19.11
2023-04-19T16:25:18.211Z,19.08
2023-04-19T16:27:46.208Z,19.13
2023-04-19T16:30:13.713Z,19.08
2023-04-19T16:32:41.516Z,19.19
2023-04-19T16:35:08.390Z,19.40
2023-04-19T16:37:35.634Z,19.56
2023-04-19T16:40:08.021Z,19.72
2023-04-19T16:42:35.018Z,19.74
2023-04-19T16:45:01.507Z,19.82
2023-04-19T16:47:30.039Z,19.85
2023-04-19T16:49:57.398Z,19.82
2023-04-19T16:52:26.142Z,19.88
2023-04-19T16:54:52.784Z,19.90
2023-04-19T16:57:19.488Z,19.86
2023-04-19T16:59:46.495Z,19.85
2023-04-19T17:02:13.207Z,19.99
2023-04-19T17:04:40.047Z,19.95
2023-04-19T17:07:08.545Z,19.85
2023-04-19T17:09:35.609Z,19.62
2023-04-19T17:12:02.305Z,19.56
2023-04-19T17:14:28.902Z,19.74
2023-04-19T17:16:55.605Z,19.91
2023-04-19T17:19:22.066Z,19.80
2023-04-19T17:21:48.645Z,19.91
2023-04-19T17:24:15.135Z,19.95
2023-04-19T17:26:41.665Z,20.02
2023-04-19T17:29:08.459Z,19.88
2023-04-19T17:31:35.233Z,19.90
2023-04-19T17:34:01.759Z,19.97
2023-04-19T17:36:28.658Z,20.02
2023-04-19T17:38:55.253Z,19.76
2023-04-19T17:41:21.789Z,19.60
2023-04-19T17:43:48.353Z,19.59
2023-04-19T17:46:15.107Z,19.57
2023-04-19T17:48:41.905Z,19.51
2023-04-19T17:51:08.433Z,19.48
2023-04-19T17:53:34.939Z,19.33
2023-04-19T17:56:01.747Z,19.33
2023-04-19T17:58:28.304Z,19.25
2023-04-19T18:00:54.782Z,19.14
2023-04-19T18:03:21.414Z,19.11
2023-04-19T18:05:48.373Z,19.19
2023-04-19T18:08:15.180Z,19.09
2023-04-19T18:10:41.675Z,19.18
2023-04-19T18:13:08.230Z,19.25
2023-04-19T18:15:34.716Z,19.24
2023-04-19T18:18:01.280Z,19.22
2023-04-19T18:20:27.882Z,19.03
2023-04-19T18:22:54.408Z,19.02
2023-04-19T18:25:21.005Z,19.06
2023-04-19T18:27:48.329Z,18.78
2023-04-19T18:30:14.872Z,19.02
2023-04-19T18:32:41.405Z,18.68
2023-04-19T18:35:11.198Z,18.75
2023-04-19T18:37:37.815Z,18.72
2023-04-19T18:40:07.356Z,18.81
2023-04-19T18:42:33.950Z,18.95
2023-04-19T18:45:00.478Z,19.05
2023-04-19T18:47:27.062Z,19.27
2023-04-19T18:50:04.630Z,19.40
2023-04-19T18:52:34.300Z,19.39
2023-04-19T18:55:00.949Z,19.46
2023-04-19T18:57:27.987Z,19.52
2023-04-19T18:59:57.743Z,19.67
2023-04-19T19:02:24.461Z,19.47
2023-04-19T19:04:57.972Z,19.57
2023-04-19T19:07:36.288Z,19.77
2023-04-19T19:10:17.093Z,19.80
2023-04-19T19:12:45.638Z,19.76
2023-04-19T19:15:14.090Z,19.63
2023-04-19T19:17:40.991Z,19.67
2023-04-19T19:20:08.186Z,19.76
2023-04-19T19:22:34.858Z,19.80
2023-04-19T19:25:01.453Z,19.73
2023-04-19T19:27:28.011Z,19.66
2023-04-19T19:29:55.023Z,19.84
2023-04-19T19:32:22.238Z,19.67
2023-04-19T19:37:19.198Z,19.85
2023-04-19T19:39:46.509Z,19.82
2023-04-19T19:42:16.297Z,19.88
2023-04-19T19:44:43.031Z,19.73
2023-04-19T19:47:10.892Z,19.87
2023-04-19T19:52:07.420Z,19.88
2023-04-19T19:54:34.057Z,19.88
2023-04-19T19:57:48.319Z,19.86
2023-04-19T19:59:54.372Z,20.09
2023-04-19T20:02:23.332Z,20.03
2023-04-19T20:04:50.749Z,19.89
2023-04-19T20:07:33.224Z,20.04
2023-04-19T20:10:14.568Z,20.22
2023-04-19T20:12:42.918Z,20.16
2023-04-19T20:15:13.259Z,20.29
2023-04-19T20:17:40.654Z,20.14
2023-04-19T20:20:08.934Z,20.19
2023-04-19T20:22:35.733Z,20.25
2023-04-19T20:25:02.223Z,20.16
2023-04-19T20:27:28.751Z,20.14
2023-04-19T20:29:56.592Z,20.29
2023-04-19T20:32:23.367Z,20.18
2023-04-19T20:34:49.984Z,20.15
2023-04-19T20:37:17.485Z,20.06
2023-04-19T20:39:44.140Z,20.28
2023-04-19T20:42:10.617Z,20.22
2023-04-19T20:44:37.387Z,20.27
2023-04-19T20:47:03.888Z,20.29
2023-04-19T20:49:30.341Z,20.22
2023-04-19T20:51:56.839Z,20.26
2023-04-19T20:54:23.337Z,20.30
2023-04-19T20:56:52.402Z,20.29
2023-04-19T20:59:19.106Z,20.35
2023-04-19T21:01:45.758Z,20.33
2023-04-19T21:04:12.327Z,20.16
2023-04-19T21:06:39.049Z,20.17
2023-04-19T21:09:05.566Z,20.27
2023-04-19T21:11:32.136Z,20.33
2023-04-19T21:13:58.640Z,20.37
2023-04-19T21:16:25.381Z,20.34
2023-04-19T21:18:51.978Z,20.44
2023-04-19T21:21:18.508Z,20.38
2023-04-19T21:23:45.096Z,20.19
2023-04-19T21:26:11.786Z,20.25
2023-04-19T21:28:38.330Z,20.24
2023-04-19T21:31:05.116Z,20.31
2023-04-19T21:33:31.681Z,20.39
2023-04-19T21:35:58.176Z,20.11
2023-04-19T21:38:24.668Z,20.32
2023-04-19T21:40:51.937Z,20.20
2023-04-19T21:43:18.528Z,20.13
2023-04-19T21:45:45.015Z,20.18
2023-04-19T21:48:12.003Z,20.18
2023-04-19T21:50:38.542Z,20.02
2023-04-19T21:53:05.050Z,20.17
2023-04-19T21:55:32.402Z,20.09
2023-04-19T21:57:59.025Z,20.24
2023-04-19T22:00:25.547Z,20.23
2023-04-19T22:02:52.172Z,20.15
2023-04-19T22:05:18.858Z,20.15
2023-04-19T22:07:45.425Z,19.99
2023-04-19T22:10:13.653Z,20.02
2023-04-19T22:12:48.253Z,20.14
2023-04-19T22:15:25.812Z,20.20
2023-04-19T22:17:52.326Z,20.13
2023-04-19T22:20:18.813Z,20.21
2023-04-19T22:22:45.347Z,20.03
2023-04-19T22:25:11.822Z,20.08
2023-04-19T22:27:38.313Z,20.02
2023-04-19T22:30:05.494Z,19.88
2023-04-19T22:32:32.100Z,20.03
2023-04-19T22:34:58.618Z,20.10
2023-04-19T22:37:25.130Z,20.17
2023-04-19T22:39:51.637Z,20.13
2023-04-19T22:42:18.154Z,20.14
2023-04-19T22:44:44.641Z,20.22
2023-04-19T22:47:11.920Z,19.87
2023-04-19T22:49:38.438Z,20.04
2023-04-19T22:52:04.938Z,19.92
2023-04-19T22:54:31.409Z,19.96
2023-04-19T22:56:59.092Z,19.93
2023-04-19T22:59:25.576Z,20.01
2023-04-19T23:01:52.168Z,20.04
2023-04-19T23:04:19.589Z,20.08
2023-04-19T23:06:48.785Z,20.00
2023-04-19T23:09:15.874Z,19.66
2023-04-19T23:11:42.595Z,19.68
2023-04-19T23:14:10.353Z,19.75
2023-04-19T23:16:38.575Z,19.67
2023-04-19T23:19:08.199Z,19.95
2023-04-19T23:21:34.713Z,19.82
2023-04-19T23:24:01.296Z,19.90
2023-04-19T23:26:27.874Z,19.76
2023-04-19T23:28:54.408Z,19.93
2023-04-19T23:31:21.099Z,19.92
2023-04-19T23:33:48.162Z,20.05
2023-04-19T23:36:14.832Z,19.99
2023-04-19T23:38:41.344Z,19.94
2023-04-19T23:41:11.189Z,20.03
2023-04-19T23:43:37.813Z,19.90
2023-04-19T23:46:04.361Z,20.00
2023-04-19T23:48:31.026Z,20.09
2023-04-19T23:50:57.507Z,20.22
2023-04-19T23:53:24.000Z,20.29
2023-04-19T23:55:50.853Z,20.17
2023-04-19T23:58:17.357Z,20.14
